Time;durP1;ratioP1;P1;durP2;ratioP2;P2;SDS_P1;SDS_P2;PMS_P1;PMS_P2;Temp;Humidity;BMP_temperature;BMP_pressure;BME280_temperature;BME280_humidity;BME280_pressure;Samples;Min_cycle;Max_cycle;Signal;HPM_P1;HPM_P2
2021/06/19 00:01:36;;;;;;;1.60;1.50;;;24.00;99.30;;;;;;4899220;29;20197;-93
2021/06/19 00:04:01;;;;;;;3.17;2.00;;;24.10;99.60;;;;;;4901955;29;20192;-92
2021/06/19 00:06:27;;;;;;;2.10;1.47;;;24.10;99.80;;;;;;4903395;29;20197;-92
2021/06/19 00:08:53;;;;;;;1.93;1.70;;;24.00;99.90;;;;;;4893847;29;20614;-92
2021/06/19 00:11:18;;;;;;;3.10;1.90;;;23.90;99.90;;;;;;4884711;29;20647;-91
2021/06/19 00:13:44;;;;;;;5.07;2.07;;;23.70;99.90;;;;;;4888855;29;20225;-92
2021/06/19 00:16:10;;;;;;;5.23;1.90;;;23.80;99.90;;;;;;4901290;29;20209;-91
2021/06/19 00:18:36;;;;;;;2.30;1.80;;;23.80;99.90;;;;;;4888338;29;20209;-91
2021/06/19 00:21:02;;;;;;;4.60;1.90;;;23.90;99.90;;;;;;4886073;29;20660;-90
2021/06/19 00:23:28;;;;;;;5.23;2.13;;;23.90;99.90;;;;;;4885341;29;20189;-91
2021/06/19 00:25:54;;;;;;;2.17;1.97;;;23.70;99.90;;;;;;4886587;29;20634;-91
2021/06/19 00:28:20;;;;;;;2.73;2.43;;;23.60;99.90;;;;;;4899962;29;20220;-91
2021/06/19 00:30:46;;;;;;;4.30;2.03;;;23.50;99.90;;;;;;4887309;29;20193;-90
2021/06/19 00:33:12;;;;;;;3.03;1.73;;;23.50;99.90;;;;;;4891103;29;20560;-92
2021/06/19 00:35:37;;;;;;;3.00;1.70;;;23.50;99.90;;;;;;4900029;29;20191;-91
2021/06/19 00:38:03;;;;;;;2.90;2.23;;;23.50;99.90;;;;;;4901677;29;20673;-91
2021/06/19 00:40:29;;;;;;;1.97;1.80;;;23.60;99.90;;;;;;4899749;29;20195;-92
2021/06/19 00:43:01;;;;;;;4.20;2.00;;;23.70;99.90;;;;;;4902968;29;20180;-91
2021/06/19 00:45:30;;;;;;;3.00;1.90;;;23.80;99.90;;;;;;4887616;29;20193;-93
2021/06/19 00:47:56;;;;;;;2.77;1.83;;;23.80;99.90;;;;;;4901874;29;20208;-92
2021/06/19 00:50:23;;;;;;;2.43;1.80;;;23.80;99.90;;;;;;4885282;29;20252;-93
2021/06/19 00:52:48;;;;;;;5.33;2.27;;;23.60;99.90;;;;;;4884388;29;20515;-92
2021/06/19 00:55:15;;;;;;;3.93;2.13;;;23.30;99.90;;;;;;4884429;29;20199;-93
2021/06/19 00:57:41;;;;;;;5.30;2.37;;;23.20;99.90;;;;;;4892629;29;20179;-93
2021/06/19 01:00:08;;;;;;;3.60;1.87;;;23.10;99.90;;;;;;4886102;29;20642;-92
2021/06/19 01:02:35;;;;;;;4.87;2.30;;;23.10;99.90;;;;;;4880259;29;20189;-92
2021/06/19 01:05:00;;;;;;;4.17;1.93;;;23.10;99.90;;;;;;4875293;29;20681;-93
2021/06/19 01:07:27;;;;;;;2.30;2.10;;;22.90;99.90;;;;;;4883981;29;20211;-92
2021/06/19 01:09:52;;;;;;;2.53;1.87;;;22.80;99.90;;;;;;4899234;29;20222;-92
2021/06/19 01:12:23;;;;;;;2.93;2.40;;;22.60;99.90;;;;;;4884533;29;20197;-92
2021/06/19 01:14:53;;;;;;;2.80;2.27;;;22.60;99.90;;;;;;4901034;29;20216;-92
2021/06/19 01:17:19;;;;;;;2.67;2.20;;;22.70;99.90;;;;;;4884080;29;20554;-92
2021/06/19 01:20:06;;;;;;;2.90;2.07;;;22.60;99.90;;;;;;4894609;29;20218;-91
2021/06/19 01:22:33;;;;;;;4.13;2.30;;;22.50;99.90;;;;;;4893648;29;20191;-93
2021/06/19 01:25:04;;;;;;;3.23;2.40;;;22.50;99.90;;;;;;4900304;29;20249;-93
2021/06/19 01:27:31;;;;;;;2.17;1.90;;;22.50;99.90;;;;;;4886564;29;20200;-92
2021/06/19 01:29:58;;;;;;;3.97;2.10;;;22.40;99.90;;;;;;4900712;29;20226;-92
2021/06/19 01:32:27;;;;;;;3.47;2.60;;;22.60;99.90;;;;;;4897849;29;20181;-93
2021/06/19 01:34:53;;;;;;;3.10;1.90;;;22.50;99.90;;;;;;4901118;29;20288;-93
2021/06/19 01:37:18;;;;;;;4.87;2.50;;;22.50;99.90;;;;;;4899783;29;20227;-92
2021/06/19 01:39:44;;;;;;;3.57;2.90;;;22.50;99.90;;;;;;4893049;29;20207;-92
2021/06/19 01:42:10;;;;;;;3.97;2.70;;;22.40;99.90;;;;;;4883619;29;20205;-92
2021/06/19 01:44:35;;;;;;;3.53;2.53;;;22.30;99.90;;;;;;4894390;29;20409;-92
2021/06/19 01:47:02;;;;;;;3.07;2.77;;;22.20;99.90;;;;;;4884833;29;20191;-92
2021/06/19 01:49:36;;;;;;;4.13;2.60;;;22.20;99.90;;;;;;4887178;29;20590;-92
2021/06/19 01:52:04;;;;;;;4.77;3.27;;;22.10;99.90;;;;;;4899855;29;20271;-93
2021/06/19 01:54:38;;;;;;;3.27;2.97;;;22.00;99.90;;;;;;4896271;29;20192;-91
2021/06/19 01:57:05;;;;;;;4.43;3.10;;;22.00;99.90;;;;;;4897809;29;20638;-92
2021/06/19 01:59:32;;;;;;;4.40;3.20;;;22.00;99.90;;;;;;4891786;29;20578;-91
2021/06/19 02:01:59;;;;;;;4.20;3.40;;;22.00;99.90;;;;;;4886760;29;20178;-91
2021/06/19 02:04:25;;;;;;;4.67;3.70;;;22.10;99.90;;;;;;4884911;29;20192;-91
2021/06/19 02:06:51;;;;;;;5.00;3.27;;;21.90;99.90;;;;;;4899190;29;20195;-91
2021/06/19 02:09:16;;;;;;;3.90;3.43;;;21.80;99.90;;;;;;4890179;29;20747;-90
2021/06/19 02:11:42;;;;;;;4.37;3.27;;;21.80;99.90;;;;;;4882660;29;20187;-90
2021/06/19 02:14:10;;;;;;;5.20;3.53;;;21.70;99.90;;;;;;4897153;29;20254;-91
2021/06/19 02:16:35;;;;;;;4.77;3.97;;;21.70;99.90;;;;;;4886152;29;20192;-93
2021/06/19 02:19:01;;;;;;;4.50;4.00;;;21.70;99.90;;;;;;4883057;29;20723;-91
2021/06/19 02:21:26;;;;;;;5.53;3.97;;;21.70;99.90;;;;;;4898443;29;20201;-91
2021/06/19 02:23:52;;;;;;;4.23;3.83;;;21.70;99.90;;;;;;4889933;29;20190;-91
2021/06/19 02:26:18;;;;;;;5.87;3.63;;;21.70;99.90;;;;;;4894122;29;20212;-91
2021/06/19 02:28:43;;;;;;;5.97;3.60;;;21.80;99.90;;;;;;4898517;29;20229;-91
2021/06/19 02:31:09;;;;;;;4.17;3.63;;;21.80;99.90;;;;;;4883924;29;20187;-91
2021/06/19 02:33:36;;;;;;;5.40;4.40;;;21.80;99.90;;;;;;4884480;29;20187;-91
2021/06/19 02:36:02;;;;;;;4.27;3.67;;;21.70;99.90;;;;;;4886378;29;20188;-93
2021/06/19 02:38:27;;;;;;;4.03;3.50;;;21.50;99.90;;;;;;4882527;29;20194;-91
2021/06/19 02:40:53;;;;;;;4.27;3.87;;;21.50;99.90;;;;;;4893705;29;20558;-94
2021/06/19 02:43:20;;;;;;;6.10;4.17;;;21.60;99.90;;;;;;4882491;29;20179;-93
2021/06/19 02:45:47;;;;;;;4.83;4.20;;;21.60;99.90;;;;;;4898389;29;20235;-93
2021/06/19 02:48:14;;;;;;;4.97;4.47;;;21.60;99.90;;;;;;4885115;29;20261;-92
2021/06/19 02:50:41;;;;;;;5.83;4.67;;;21.50;99.90;;;;;;4889993;29;20200;-90
2021/06/19 02:53:08;;;;;;;5.17;4.67;;;21.40;99.90;;;;;;4900990;29;20209;-91
2021/06/19 02:55:36;;;;;;;7.10;5.10;;;21.50;99.90;;;;;;4891216;29;20201;-90
2021/06/19 02:58:04;;;;;;;6.40;5.50;;;21.50;99.90;;;;;;4887340;29;20187;-91
2021/06/19 03:00:30;;;;;;;6.33;5.53;;;21.30;99.90;;;;;;4886765;29;20181;-89
2021/06/19 03:02:55;;;;;;;6.43;5.43;;;21.40;99.90;;;;;;4889241;29;20178;-91
2021/06/19 03:05:24;;;;;;;6.37;5.00;;;21.50;99.90;;;;;;4884716;29;20187;-91
2021/06/19 03:07:50;;;;;;;5.57;4.77;;;21.60;99.90;;;;;;4900482;29;20193;-91
2021/06/19 03:10:18;;;;;;;7.67;4.53;;;21.70;99.90;;;;;;4900344;29;20203;-90
2021/06/19 03:12:44;;;;;;;6.83;4.57;;;21.80;99.90;;;;;;4899194;29;20186;-91
2021/06/19 03:15:11;;;;;;;6.53;4.83;;;21.30;99.90;;;;;;4896607;29;20665;-91
2021/06/19 03:17:37;;;;;;;8.90;5.47;;;21.10;99.90;;;;;;4902075;29;20206;-90
2021/06/19 03:20:09;;;;;;;5.80;5.03;;;21.00;99.90;;;;;;4900210;29;20698;-91
2021/06/19 03:22:45;;;;;;;5.27;4.73;;;20.90;99.90;;;;;;4898910;29;20194;-90
2021/06/19 03:25:14;;;;;;;7.57;5.33;;;20.80;99.90;;;;;;4896908;29;20196;-91
2021/06/19 03:27:40;;;;;;;8.00;5.53;;;20.80;99.90;;;;;;4901156;29;20205;-89
2021/06/19 03:30:07;;;;;;;6.00;5.10;;;20.70;99.90;;;;;;4897631;29;20219;-91
2021/06/19 03:32:32;;;;;;;6.90;5.43;;;20.70;99.90;;;;;;4895718;29;20203;-92
2021/06/19 03:34:58;;;;;;;6.43;5.43;;;20.80;99.90;;;;;;4894985;29;20706;-92
2021/06/19 03:37:23;;;;;;;9.27;6.37;;;20.70;99.90;;;;;;4899776;29;20194;-92
2021/06/19 03:39:51;;;;;;;7.47;6.10;;;20.60;99.90;;;;;;4903850;29;20189;-92
2021/06/19 03:42:17;;;;;;;6.50;5.40;;;20.50;99.90;;;;;;4903479;29;20641;-89
2021/06/19 03:44:42;;;;;;;7.63;6.57;;;20.50;99.90;;;;;;4887495;29;20256;-89
2021/06/19 03:47:08;;;;;;;7.40;6.57;;;20.50;99.90;;;;;;4888106;29;20197;-90
2021/06/19 03:49:33;;;;;;;7.57;6.77;;;20.50;99.90;;;;;;4904453;29;20216;-89
2021/06/19 03:51:59;;;;;;;11.20;7.57;;;20.60;99.90;;;;;;4902306;29;20184;-89
2021/06/19 03:54:25;;;;;;;11.17;9.13;;;20.60;99.90;;;;;;4903640;29;20187;-89
2021/06/19 03:56:50;;;;;;;10.10;8.63;;;20.60;99.90;;;;;;4891277;29;20189;-90
2021/06/19 03:59:16;;;;;;;10.50;8.77;;;20.60;99.90;;;;;;4898773;29;20184;-90
2021/06/19 04:01:41;;;;;;;12.87;9.43;;;20.60;99.90;;;;;;4900558;29;20196;-90
2021/06/19 04:04:07;;;;;;;13.47;9.53;;;20.60;99.90;;;;;;4900654;29;20194;-91
2021/06/19 04:06:32;;;;;;;13.80;10.63;;;20.70;99.90;;;;;;4904040;29;20193;-89
2021/06/19 04:08:58;;;;;;;14.13;10.90;;;20.60;99.90;;;;;;4901722;29;20244;-91
2021/06/19 04:11:25;;;;;;;12.17;10.87;;;20.40;99.90;;;;;;4920222;29;20192;-92
2021/06/19 04:13:50;;;;;;;15.23;10.93;;;20.40;99.90;;;;;;4888997;29;20181;-92
2021/06/19 04:16:16;;;;;;;13.00;10.73;;;20.50;99.90;;;;;;4883102;29;20188;-92
2021/06/19 04:18:42;;;;;;;12.73;10.97;;;20.50;99.90;;;;;;4883940;29;20213;-92
2021/06/19 04:21:08;;;;;;;12.03;10.30;;;20.50;99.90;;;;;;4881823;29;20648;-91
2021/06/19 04:23:34;;;;;;;14.50;11.73;;;20.50;99.90;;;;;;4866195;29;20190;-90
2021/06/19 04:26:01;;;;;;;12.20;10.33;;;20.50;99.90;;;;;;4902044;29;20601;-89
2021/06/19 04:28:27;;;;;;;13.60;10.40;;;20.50;99.90;;;;;;4893885;29;20240;-92
2021/06/19 04:30:58;;;;;;;12.87;10.77;;;20.70;99.90;;;;;;4890128;29;20280;-92
2021/06/19 04:33:24;;;;;;;11.83;10.60;;;20.50;99.90;;;;;;4892354;29;20233;-92
2021/06/19 04:35:50;;;;;;;11.43;10.20;;;20.50;99.90;;;;;;4899419;29;20200;-92
2021/06/19 04:38:16;;;;;;;12.90;10.33;;;20.50;99.90;;;;;;4885712;29;20207;-91
2021/06/19 04:43:17;;;;;;;10.87;9.73;;;20.60;99.90;;;;;;4906618;29;20227;-90
2021/06/19 04:45:43;;;;;;;10.70;9.60;;;20.50;99.90;;;;;;4885011;29;20185;-92
2021/06/19 04:48:09;;;;;;;11.07;8.40;;;20.40;99.90;;;;;;4889148;29;20205;-93
2021/06/19 04:50:36;;;;;;;9.37;7.97;;;20.40;99.90;;;;;;4883979;29;20265;-92
2021/06/19 04:53:03;;;;;;;8.90;7.80;;;20.50;99.90;;;;;;4881481;29;20205;-93
2021/06/19 04:55:30;;;;;;;9.20;7.30;;;20.60;99.90;;;;;;4884182;29;20672;-91
2021/06/19 04:58:15;;;;;;;9.97;7.83;;;20.70;99.90;;;;;;4888824;29;20177;-89
2021/06/19 05:00:41;;;;;;;8.23;7.30;;;20.80;99.90;;;;;;4882602;29;20186;-92
2021/06/19 05:03:07;;;;;;;10.17;7.37;;;20.70;99.90;;;;;;4883816;29;20249;-93
2021/06/19 05:05:33;;;;;;;11.53;8.83;;;20.60;99.90;;;;;;4882370;29;20614;-92
2021/06/19 05:07:59;;;;;;;9.03;7.17;;;20.60;99.90;;;;;;4870393;29;20192;-92
2021/06/19 05:10:25;;;;;;;9.80;7.20;;;20.50;99.90;;;;;;4882238;29;20190;-93
2021/06/19 05:12:51;;;;;;;9.57;7.80;;;20.40;99.90;;;;;;4883611;29;20662;-93
2021/06/19 05:15:21;;;;;;;7.43;6.63;;;20.40;99.90;;;;;;4882581;29;20229;-93
2021/06/19 05:17:47;;;;;;;9.83;6.77;;;20.40;99.90;;;;;;4883061;29;20190;-93
2021/06/19 05:20:12;;;;;;;10.37;7.70;;;20.60;99.90;;;;;;4879358;29;20608;-93
2021/06/19 05:22:38;;;;;;;8.90;7.60;;;20.60;99.90;;;;;;4897256;29;20218;-92
2021/06/19 05:25:05;;;;;;;10.70;7.43;;;20.50;99.90;;;;;;4879630;29;20206;-93
2021/06/19 05:27:31;;;;;;;10.30;8.37;;;20.40;99.90;;;;;;4898081;29;20575;-90
2021/06/19 05:29:56;;;;;;;9.10;7.97;;;20.40;99.90;;;;;;4879304;29;20226;-91
2021/06/19 05:32:23;;;;;;;8.50;7.37;;;20.40;99.90;;;;;;4882184;29;20245;-91
2021/06/19 05:34:49;;;;;;;9.80;7.20;;;20.50;99.90;;;;;;4890605;29;20223;-92
2021/06/19 05:37:15;;;;;;;7.63;6.77;;;20.60;99.90;;;;;;4888573;29;20176;-91
2021/06/19 05:39:40;;;;;;;7.50;6.70;;;20.60;99.90;;;;;;4902169;29;20197;-91
2021/06/19 05:42:08;;;;;;;7.70;6.40;;;20.60;99.90;;;;;;4900925;29;20192;-92
2021/06/19 05:44:34;;;;;;;8.67;6.87;;;20.60;99.90;;;;;;4893963;29;20181;-92
2021/06/19 05:46:59;;;;;;;8.23;7.13;;;20.60;99.90;;;;;;4884920;29;20205;-91
2021/06/19 05:49:25;;;;;;;8.60;6.80;;;20.70;99.90;;;;;;4888064;29;20728;-89
2021/06/19 05:51:51;;;;;;;7.47;6.07;;;20.70;99.90;;;;;;4884393;29;20190;-93
2021/06/19 05:54:16;;;;;;;6.90;6.20;;;20.80;99.90;;;;;;4883372;29;20281;-92
2021/06/19 05:56:42;;;;;;;8.17;6.23;;;20.80;99.90;;;;;;4884207;29;20192;-92
2021/06/19 05:59:08;;;;;;;7.50;6.63;;;20.90;99.90;;;;;;4882729;29;20281;-92
2021/06/19 06:01:33;;;;;;;9.37;5.97;;;20.90;99.90;;;;;;4883853;29;20616;-89
2021/06/19 06:04:01;;;;;;;8.83;6.10;;;20.70;99.90;;;;;;4883152;29;20277;-92
2021/06/19 06:06:27;;;;;;;6.27;5.00;;;20.80;99.90;;;;;;4896669;29;20178;-91
2021/06/19 06:08:53;;;;;;;6.67;5.37;;;20.80;99.90;;;;;;4898318;29;20216;-91
2021/06/19 06:11:19;;;;;;;5.77;4.73;;;20.80;99.90;;;;;;4884350;29;20222;-92
2021/06/19 06:13:45;;;;;;;5.97;4.80;;;20.80;99.90;;;;;;4901496;29;20193;-91
2021/06/19 06:16:10;;;;;;;5.13;4.03;;;20.80;99.90;;;;;;4891223;29;20181;-91
2021/06/19 06:18:36;;;;;;;5.60;4.00;;;20.90;99.90;;;;;;4885677;29;20206;-91
2021/06/19 06:21:03;;;;;;;4.93;3.80;;;20.80;99.90;;;;;;4894958;29;20196;-91
2021/06/19 06:23:29;;;;;;;4.33;3.87;;;20.70;99.90;;;;;;4901706;29;20344;-91
2021/06/19 06:25:55;;;;;;;5.20;3.90;;;20.80;99.90;;;;;;4901206;29;20291;-92
2021/06/19 06:28:20;;;;;;;4.37;3.73;;;20.90;99.90;;;;;;4894994;29;20208;-91
2021/06/19 06:30:47;;;;;;;5.43;3.63;;;21.10;99.90;;;;;;4880761;29;20602;-92
2021/06/19 06:33:12;;;;;;;5.20;3.90;;;21.20;99.90;;;;;;4898698;29;20193;-92
2021/06/19 06:35:38;;;;;;;6.93;3.77;;;21.30;99.90;;;;;;4893420;29;20191;-92
2021/06/19 06:38:04;;;;;;;4.57;4.13;;;21.40;99.90;;;;;;4892430;29;20196;-92
2021/06/19 06:40:29;;;;;;;6.57;3.30;;;21.40;99.90;;;;;;4901305;29;20187;-92
2021/06/19 06:42:55;;;;;;;4.70;3.47;;;21.40;99.90;;;;;;4900368;29;20184;-92
2021/06/19 06:45:21;;;;;;;6.70;4.20;;;21.50;99.90;;;;;;4898224;29;20190;-92
2021/06/19 06:47:47;;;;;;;6.20;4.10;;;21.50;99.90;;;;;;4897991;29;20260;-93
2021/06/19 06:50:13;;;;;;;4.53;4.03;;;21.50;99.90;;;;;;4882280;29;20688;-92
2021/06/19 06:52:39;;;;;;;4.90;3.80;;;21.60;99.90;;;;;;4879838;29;20236;-92
2021/06/19 06:55:07;;;;;;;4.80;3.73;;;21.50;99.90;;;;;;4881582;29;20202;-91
2021/06/19 06:57:33;;;;;;;9.47;4.67;;;21.70;99.90;;;;;;4907791;29;20173;-92
2021/06/19 06:59:58;;;;;;;5.00;3.97;;;21.70;99.90;;;;;;4896114;29;20554;-93
2021/06/19 07:05:54;;;;;;;5.47;3.90;;;21.60;99.90;;;;;;5062420;23;20260;-91
2021/06/19 07:08:20;;;;;;;5.37;3.90;;;21.90;99.90;;;;;;4907433;29;20214;-91
2021/06/19 07:10:45;;;;;;;6.33;4.20;;;22.10;99.90;;;;;;4918762;29;20202;-88
2021/06/19 07:13:12;;;;;;;4.53;4.03;;;22.20;99.90;;;;;;4918771;29;20225;-90
2021/06/19 07:15:37;;;;;;;8.80;4.63;;;22.20;99.90;;;;;;4919400;29;20188;-90
2021/06/19 07:18:04;;;;;;;5.87;4.27;;;22.30;99.90;;;;;;4915224;29;20213;-92
2021/06/19 07:20:29;;;;;;;5.87;4.07;;;22.20;99.90;;;;;;4900803;29;20183;-91
2021/06/19 07:22:55;;;;;;;7.20;4.43;;;22.20;99.90;;;;;;4900875;29;20184;-88
2021/06/19 07:25:21;;;;;;;8.47;5.73;;;22.00;99.90;;;;;;4899894;29;20184;-91
2021/06/19 07:27:53;;;;;;;5.60;4.80;;;21.90;99.90;;;;;;4899967;29;20234;-90
2021/06/19 07:30:19;;;;;;;6.43;4.63;;;22.00;99.90;;;;;;4900918;29;20667;-90
2021/06/19 07:32:45;;;;;;;9.50;4.77;;;22.10;99.90;;;;;;4900749;29;20188;-91
2021/06/19 07:35:11;;;;;;;6.47;4.03;;;22.10;99.90;;;;;;4900719;29;20244;-92
2021/06/19 07:37:37;;;;;;;5.40;4.47;;;22.00;99.90;;;;;;4893566;29;20187;-90
2021/06/19 07:40:05;;;;;;;5.53;3.87;;;21.80;99.90;;;;;;4900172;29;20259;-89
2021/06/19 07:42:31;;;;;;;5.10;4.37;;;21.90;99.90;;;;;;4897992;29;20179;-90
2021/06/19 07:44:57;;;;;;;4.83;3.90;;;22.00;99.90;;;;;;4898292;29;20219;-90
2021/06/19 07:47:24;;;;;;;5.83;4.20;;;22.20;99.90;;;;;;4900280;29;20194;-91
2021/06/19 07:49:51;;;;;;;4.30;3.90;;;22.20;99.90;;;;;;4899830;29;20229;-88
2021/06/19 07:52:17;;;;;;;7.43;4.33;;;22.20;99.90;;;;;;4900597;29;20183;-89
2021/06/19 07:54:43;;;;;;;4.80;4.30;;;22.10;99.90;;;;;;4900753;29;20190;-89
2021/06/19 07:57:08;;;;;;;5.97;4.30;;;21.90;99.90;;;;;;4900736;29;20179;-89
2021/06/19 07:59:34;;;;;;;7.53;4.33;;;21.90;99.90;;;;;;4900663;29;20726;-89
2021/06/19 08:02:01;;;;;;;6.77;4.73;;;21.70;99.90;;;;;;4899325;29;20218;-89
2021/06/19 08:04:27;;;;;;;6.87;4.43;;;21.70;99.90;;;;;;4900123;29;20174;-89
2021/06/19 08:06:53;;;;;;;7.53;4.30;;;21.70;99.90;;;;;;4908306;29;20256;-88
2021/06/19 08:09:19;;;;;;;6.03;4.83;;;21.70;99.90;;;;;;4900108;29;20601;-89
2021/06/19 08:11:46;;;;;;;6.67;5.30;;;21.70;99.90;;;;;;4904089;29;20626;-88
2021/06/19 08:14:13;;;;;;;13.70;5.30;;;21.70;99.90;;;;;;4904014;29;20175;-88
2021/06/19 08:16:45;;;;;;;16.47;5.53;;;21.80;99.90;;;;;;4905427;29;20189;-89
2021/06/19 08:19:11;;;;;;;11.27;5.50;;;21.70;99.90;;;;;;4904422;29;20212;-88
2021/06/19 08:21:38;;;;;;;8.90;5.67;;;21.60;99.90;;;;;;4900785;29;20182;-89
2021/06/19 08:24:04;;;;;;;8.83;6.07;;;21.60;99.90;;;;;;4902170;29;20192;-89
2021/06/19 08:26:30;;;;;;;11.23;5.53;;;21.50;99.90;;;;;;4893481;29;20230;-89
2021/06/19 08:28:56;;;;;;;7.57;6.00;;;21.50;99.90;;;;;;4890916;29;20220;-89
2021/06/19 08:31:21;;;;;;;11.10;5.90;;;21.30;99.90;;;;;;4903525;29;20196;-89
2021/06/19 08:33:47;;;;;;;10.40;6.07;;;21.30;99.90;;;;;;4902831;29;20211;-90
2021/06/19 08:36:13;;;;;;;9.20;5.10;;;21.40;99.90;;;;;;4902849;29;20530;-90
2021/06/19 08:38:38;;;;;;;6.97;4.93;;;21.60;99.90;;;;;;4902356;29;20188;-91
2021/06/19 08:41:09;;;;;;;7.10;5.03;;;21.60;99.90;;;;;;4891684;29;20190;-88
2021/06/19 08:43:40;;;;;;;8.23;4.87;;;21.80;99.90;;;;;;4901526;29;20218;-88
2021/06/19 08:46:08;;;;;;;9.27;4.43;;;22.00;99.90;;;;;;4898211;29;20212;-87
2021/06/19 08:48:37;;;;;;;6.03;4.70;;;22.20;99.90;;;;;;4901605;29;20209;-89
2021/06/19 08:51:03;;;;;;;7.40;5.47;;;22.20;99.90;;;;;;4901973;29;20180;-88
2021/06/19 08:53:28;;;;;;;11.03;8.90;;;22.30;99.90;;;;;;4902088;29;20191;-88
2021/06/19 08:55:54;;;;;;;16.57;8.67;;;22.50;99.90;;;;;;4890578;29;20550;-88
2021/06/19 08:58:20;;;;;;;16.23;9.20;;;22.50;99.90;;;;;;4902921;29;20224;-88
2021/06/19 09:00:46;;;;;;;9.93;8.93;;;22.50;99.90;;;;;;4903730;29;20203;-88
2021/06/19 09:03:25;;;;;;;12.40;8.77;;;22.20;99.90;;;;;;4903285;29;20179;-88
2021/06/19 09:06:16;;;;;;;14.17;8.57;;;22.20;99.90;;;;;;4885628;29;20193;-88
2021/06/19 09:09:15;;;;;;;12.60;9.33;;;22.30;99.90;;;;;;4884256;29;20218;-88
2021/06/19 09:11:44;;;;;;;10.83;8.77;;;22.30;99.90;;;;;;4897709;29;20183;-89
2021/06/19 09:14:18;;;;;;;14.17;9.07;;;22.30;99.90;;;;;;4901557;29;20285;-88
2021/06/19 09:17:00;;;;;;;10.63;7.50;;;22.30;99.90;;;;;;4887624;29;20200;-87
2021/06/19 09:19:37;;;;;;;8.50;6.53;;;22.10;99.90;;;;;;4889065;29;20295;-87
2021/06/19 09:22:23;;;;;;;9.20;6.03;;;21.90;99.90;;;;;;4889077;29;20195;-90
2021/06/19 09:24:57;;;;;;;7.40;6.53;;;21.90;99.90;;;;;;4895513;29;21615;-88
2021/06/19 09:27:44;;;;;;;9.97;6.50;;;21.80;99.90;;;;;;4903197;29;20184;-88
2021/06/19 09:30:17;;;;;;;9.93;6.67;;;21.80;99.90;;;;;;4903071;29;20554;-88
2021/06/19 09:32:48;;;;;;;10.97;8.87;;;21.90;99.90;;;;;;4903187;29;20171;-88
2021/06/19 09:35:26;;;;;;;9.37;7.33;;;21.80;99.90;;;;;;4904211;29;20607;-89
2021/06/19 09:38:06;;;;;;;11.23;7.67;;;21.90;99.90;;;;;;4893174;29;20195;-88
2021/06/19 09:40:39;;;;;;;8.73;6.83;;;22.10;99.90;;;;;;4902520;29;20278;-88
2021/06/19 09:43:24;;;;;;;9.87;5.57;;;22.50;99.90;;;;;;4898050;29;20190;-90
2021/06/19 09:46:09;;;;;;;5.80;5.03;;;22.70;99.90;;;;;;4904544;29;20167;-88
2021/06/19 09:48:43;;;;;;;8.60;5.77;;;22.70;99.90;;;;;;4902420;29;20210;-90
2021/06/19 09:51:17;;;;;;;12.50;6.40;;;22.70;99.90;;;;;;4902652;29;20183;-90
2021/06/19 09:53:46;;;;;;;12.33;8.47;;;22.60;99.90;;;;;;4902863;29;20171;-90
2021/06/19 09:56:30;;;;;;;12.67;7.90;;;22.50;99.90;;;;;;4903226;29;20181;-90
2021/06/19 09:58:57;;;;;;;10.57;7.90;;;22.40;99.90;;;;;;4902638;29;20186;-90
2021/06/19 10:01:38;;;;;;;12.50;8.73;;;22.40;99.90;;;;;;4894954;29;20183;-89
2021/06/19 10:04:08;;;;;;;12.07;7.93;;;22.60;99.90;;;;;;4883920;29;20266;-88
2021/06/19 10:06:36;;;;;;;8.87;7.30;;;22.80;99.90;;;;;;4889989;29;20208;-90
2021/06/19 10:09:02;;;;;;;11.00;8.13;;;23.00;99.90;;;;;;4902135;29;20211;-88
2021/06/19 10:11:30;;;;;;;11.10;7.70;;;23.20;99.90;;;;;;4896156;29;20229;-88
2021/06/19 10:14:00;;;;;;;13.07;7.33;;;23.40;99.90;;;;;;4902184;29;20330;-88
2021/06/19 10:16:30;;;;;;;9.90;7.30;;;23.70;99.90;;;;;;4902388;29;20204;-88
2021/06/19 10:18:59;;;;;;;9.97;6.60;;;23.90;99.90;;;;;;4897516;29;20291;-88
2021/06/19 10:21:25;;;;;;;11.33;6.13;;;23.90;99.90;;;;;;4890564;29;20190;-87
2021/06/19 10:23:52;;;;;;;9.47;7.20;;;24.00;99.90;;;;;;4884060;29;20177;-87
2021/06/19 10:26:22;;;;;;;8.50;7.10;;;24.10;99.90;;;;;;4881752;29;20199;-88
2021/06/19 10:28:50;;;;;;;9.73;7.00;;;24.30;99.60;;;;;;4883788;29;20304;-87
2021/06/19 10:31:18;;;;;;;11.50;6.37;;;24.50;99.20;;;;;;4886126;29;20666;-88
2021/06/19 10:33:44;;;;;;;8.70;6.70;;;24.40;99.70;;;;;;4887555;29;20184;-89
2021/06/19 10:36:11;;;;;;;10.07;7.17;;;24.50;99.40;;;;;;4900175;29;20248;-89
2021/06/19 10:38:51;;;;;;;8.70;7.53;;;24.60;98.80;;;;;;4899821;29;20191;-88
2021/06/19 10:41:43;;;;;;;9.77;6.50;;;24.60;98.80;;;;;;4897890;29;20181;-88
2021/06/19 10:44:09;;;;;;;11.40;6.87;;;24.60;98.60;;;;;;4914957;29;20184;-89
2021/06/19 10:46:38;;;;;;;11.63;7.40;;;24.70;98.50;;;;;;4899861;29;20275;-86
2021/06/19 10:49:24;;;;;;;12.00;7.00;;;24.80;98.10;;;;;;4900046;29;20227;-87
2021/06/19 10:52:10;;;;;;;7.90;7.00;;;24.70;98.30;;;;;;4917198;29;20184;-92
2021/06/19 10:54:35;;;;;;;10.57;7.23;;;24.60;98.70;;;;;;4900798;29;20195;-89
2021/06/19 10:57:01;;;;;;;12.73;6.60;;;24.70;98.90;;;;;;4901137;29;20184;-88
2021/06/19 10:59:28;;;;;;;9.13;6.83;;;24.70;98.40;;;;;;4896228;29;20224;-88
2021/06/19 11:02:02;;;;;;;10.80;7.07;;;24.70;98.30;;;;;;4916088;29;20255;-87
2021/06/19 11:04:40;;;;;;;9.83;7.33;;;24.90;98.00;;;;;;4901167;29;20274;-88
2021/06/19 11:07:18;;;;;;;9.50;7.37;;;25.10;97.70;;;;;;4896883;29;20200;-88
2021/06/19 11:09:48;;;;;;;8.33;6.67;;;25.00;97.50;;;;;;4914266;29;20216;-88
2021/06/19 11:12:34;;;;;;;7.50;6.70;;;24.80;97.80;;;;;;4888939;29;20189;-88
2021/06/19 11:15:09;;;;;;;8.57;6.40;;;24.70;98.10;;;;;;4900502;29;20188;-88
2021/06/19 11:17:35;;;;;;;7.87;5.73;;;24.90;97.70;;;;;;4896614;29;20201;-86
2021/06/19 11:20:09;;;;;;;7.40;5.80;;;25.00;97.60;;;;;;4898096;29;20205;-89
2021/06/19 11:23:05;;;;;;;8.13;5.40;;;25.00;98.00;;;;;;4897535;29;20192;-90
2021/06/19 11:25:39;;;;;;;5.73;5.03;;;25.00;97.50;;;;;;4880041;29;20212;-91
2021/06/19 11:28:19;;;;;;;7.17;5.77;;;25.10;97.60;;;;;;4899794;29;20622;-89
2021/06/19 11:31:31;;;;;;;8.87;5.47;;;25.50;97.10;;;;;;4900154;29;20197;-91
2021/06/19 11:33:57;;;;;;;6.90;4.80;;;25.90;96.80;;;;;;4898477;29;20209;-91
2021/06/19 11:36:24;;;;;;;7.90;5.63;;;26.00;97.00;;;;;;4898658;29;20294;-90
2021/06/19 11:38:52;;;;;;;7.10;5.13;;;26.30;95.60;;;;;;4895062;29;20191;-88
2021/06/19 11:41:19;;;;;;;8.07;5.93;;;26.50;95.10;;;;;;4900537;29;20189;-89
2021/06/19 11:43:45;;;;;;;9.80;5.47;;;26.30;95.10;;;;;;4899889;29;20183;-89
2021/06/19 11:46:12;;;;;;;7.73;6.33;;;26.00;95.70;;;;;;4902091;29;20186;-88
2021/06/19 11:48:52;;;;;;;7.93;4.97;;;25.90;95.50;;;;;;4901716;29;20227;-88
2021/06/19 11:51:20;;;;;;;8.10;5.77;;;25.50;96.10;;;;;;4904829;29;20196;-88
2021/06/19 11:53:46;;;;;;;8.67;6.50;;;25.30;97.00;;;;;;4893534;29;20621;-88
2021/06/19 11:56:29;;;;;;;7.27;6.47;;;25.30;97.00;;;;;;4904216;29;20184;-89
2021/06/19 11:59:05;;;;;;;8.17;6.80;;;25.00;97.10;;;;;;4904184;29;20184;-89
2021/06/19 12:01:32;;;;;;;7.70;6.33;;;24.80;97.50;;;;;;4903206;29;20244;-83
2021/06/19 12:04:00;;;;;;;7.10;6.40;;;24.60;97.80;;;;;;4899687;29;20184;-84
2021/06/19 12:06:37;;;;;;;9.30;6.57;;;24.40;98.10;;;;;;4903086;29;20208;-84
2021/06/19 12:09:10;;;;;;;9.30;6.80;;;24.50;98.00;;;;;;4900145;29;20573;-84
2021/06/19 12:11:40;;;;;;;9.47;6.27;;;24.60;98.00;;;;;;4897661;29;20223;-84
2021/06/19 12:14:24;;;;;;;8.87;6.03;;;24.80;98.20;;;;;;4902766;29;20189;-84
2021/06/19 12:16:55;;;;;;;7.57;6.27;;;25.00;97.40;;;;;;4901648;29;20192;-84
2021/06/19 12:19:23;;;;;;;7.40;5.53;;;25.10;97.20;;;;;;4902554;29;20204;-84
2021/06/19 12:21:50;;;;;;;7.97;5.50;;;25.00;97.60;;;;;;4919897;29;20244;-86
2021/06/19 12:47:51;;;;;;;6.03;5.37;;;25.70;96.70;;;;;;4920081;23;20244;-89
2021/06/19 12:50:35;;;;;;;6.43;5.17;;;26.20;95.80;;;;;;4899213;29;20244;-89
2021/06/19 12:53:06;;;;;;;7.50;5.17;;;26.60;95.70;;;;;;4893081;29;20186;-90
2021/06/19 12:55:37;;;;;;;7.60;4.80;;;27.40;94.30;;;;;;4899156;29;20266;-90
2021/06/19 12:58:15;;;;;;;5.87;4.30;;;28.00;93.70;;;;;;4886353;29;20190;-90
2021/06/19 13:00:44;;;;;;;6.03;4.73;;;28.30;93.40;;;;;;4901518;29;20263;-89
2021/06/19 13:03:19;;;;;;;7.10;5.37;;;28.50;92.40;;;;;;4915910;29;20192;-90
2021/06/19 13:05:59;;;;;;;8.77;5.67;;;28.50;91.80;;;;;;4922004;29;20633;-89
2021/06/19 13:08:30;;;;;;;6.63;5.40;;;28.40;92.00;;;;;;4902808;29;20699;-88
2021/06/19 13:11:33;;;;;;;;;;;;;;;;;;;;;
2021/06/19 13:14:51;;;;;;;;;;;;;;;;;;;;;
2021/06/19 13:17:18;;;;;;;8.77;5.27;;;27.90;92.70;;;;;;4932769;29;20669;-89
2021/06/19 13:19:45;;;;;;;7.07;5.93;;;28.00;92.90;;;;;;4872590;29;20263;-89
2021/06/19 13:22:11;;;;;;;6.33;5.30;;;27.70;92.80;;;;;;4883525;29;20193;-84
2021/06/19 13:24:39;;;;;;;6.00;4.60;;;27.30;93.20;;;;;;4883199;29;20226;-84